Time;durP1;ratioP1;P1;durP2;ratioP2;P2;SDS_P1;SDS_P2;PMS_P1;PMS_P2;Temp;Humidity;BMP_temperature;BMP_pressure;BME280_temperature;BME280_humidity;BME280_pressure;Samples;Min_cycle;Max_cycle;Signal;HPM_P1;HPM_P2
2021/06/09 00:02:02;;;;;;;;;;;;;;;22.57;55.87;100889.09;5031378;28;19917;-80
2021/06/09 00:04:47;;;;;;;;;;;;;;;22.57;55.58;100891.09;5026198;28;20304;-81
2021/06/09 00:07:31;;;;;;;;;;;;;;;22.58;55.04;100889.91;5023864;28;19912;-82
2021/06/09 00:10:16;;;;;;;;;;;;;;;22.59;55.03;100883.97;5017579;28;19912;-80
2021/06/09 00:13:01;;;;;;;;;;;;;;;22.60;54.64;100893.09;5032431;28;20384;-81
2021/06/09 00:15:45;;;;;;;;;;;;;;;22.60;54.48;100882.78;5044646;28;19920;-81
2021/06/09 00:18:29;;;;;;;;;;;;;;;22.60;54.42;100888.31;5017193;28;20166;-79
2021/06/09 00:21:15;;;;;;;;;;;;;;;22.61;54.51;100881.59;5029624;28;19920;-80
2021/06/09 00:24:00;;;;;;;;;;;;;;;22.35;50.82;100886.69;5015382;28;19931;-80
2021/06/09 00:26:44;;;;;;;;;;;;;;;21.92;52.51;100885.66;5031000;28;19913;-79
2021/06/09 00:29:28;;;;;;;;;;;;;;;22.01;52.36;100886.94;5024289;28;19912;-81
2021/06/09 00:32:15;;;;;;;;;;;;;;;22.03;51.17;100883.78;5047107;28;19913;-81
2021/06/09 00:34:59;;;;;;;;;;;;;;;22.13;54.51;100880.25;5021964;28;19912;-80
2021/06/09 00:37:44;;;;;;;;;;;;;;;22.26;54.60;100877.91;5018491;28;20416;-82
2021/06/09 00:40:30;;;;;;;;;;;;;;;22.34;54.50;100876.78;5035800;28;19917;-82
2021/06/09 00:43:19;;;;;;;;;;;;;;;22.40;54.51;100886.31;5053200;28;19913;-82
2021/06/09 00:46:06;;;;;;;;;;;;;;;22.43;53.77;100885.50;5019133;28;19975;-82
2021/06/09 00:48:51;;;;;;;;;;;;;;;22.42;53.54;100878.38;5020894;28;19913;-83
2021/06/09 00:51:35;;;;;;;;;;;;;;;22.46;53.83;100885.50;5040047;28;19913;-82
2021/06/09 00:54:20;;;;;;;;;;;;;;;22.52;53.86;100888.69;5032914;28;19917;-82
2021/06/09 00:57:05;;;;;;;;;;;;;;;22.44;53.01;100887.91;5037096;28;19913;-82
2021/06/09 00:59:50;;;;;;;;;;;;;;;21.63;55.05;100893.81;5035846;28;19916;-83
2021/06/09 01:02:35;;;;;;;;;;;;;;;21.04;57.99;100888.56;5044412;28;20467;-80
2021/06/09 01:05:19;;;;;;;;;;;;;;;20.93;57.52;100892.03;5019945;28;19913;-79
2021/06/09 01:08:04;;;;;;;;;;;;;;;20.95;57.14;100896.38;5044996;28;19913;-81
2021/06/09 01:10:49;;;;;;;;;;;;;;;21.32;57.77;100889.66;5030341;28;19916;-85
2021/06/09 01:13:33;;;;;;;;;;;;;;;21.65;56.74;100885.91;5017056;28;19913;-82
2021/06/09 01:16:18;;;;;;;;;;;;;;;21.89;56.22;100887.22;5032311;28;19912;-85
2021/06/09 01:19:03;;;;;;;;;;;;;;;22.03;55.86;100883.78;5030803;28;19917;-83
2021/06/09 01:21:48;;;;;;;;;;;;;;;22.13;55.54;100883.03;5030251;28;20384;-83
2021/06/09 01:24:33;;;;;;;;;;;;;;;22.18;54.83;100880.69;5022221;28;19912;-84
2021/06/09 01:27:21;;;;;;;;;;;;;;;22.12;54.91;100882.22;5014781;28;20297;-81
2021/06/09 01:30:07;;;;;;;;;;;;;;;22.21;54.91;100883.84;5022281;28;19913;-81
2021/06/09 01:32:52;;;;;;;;;;;;;;;22.18;54.47;100882.66;5034321;28;19913;-81
2021/06/09 01:35:37;;;;;;;;;;;;;;;22.05;54.26;100886.94;5029921;28;19916;-81
2021/06/09 01:38:22;;;;;;;;;;;;;;;21.81;54.36;100879.28;5034160;28;19912;-79
2021/06/09 01:41:06;;;;;;;;;;;;;;;21.87;55.15;100874.97;5032834;28;19925;-81
2021/06/09 01:43:52;;;;;;;;;;;;;;;21.27;56.64;100881.72;5029021;28;19917;-81
2021/06/09 01:46:36;;;;;;;;;;;;;;;20.84;56.86;100885.22;5033297;28;19913;-82
2021/06/09 01:49:21;;;;;;;;;;;;;;;21.02;57.21;100885.41;5034607;28;19917;-81
2021/06/09 01:52:05;;;;;;;;;;;;;;;20.96;56.68;100886.94;5031620;28;19913;-80
2021/06/09 01:54:50;;;;;;;;;;;;;;;20.85;58.03;100884.06;5019569;28;19917;-85
2021/06/09 01:57:35;;;;;;;;;;;;;;;20.82;57.61;100882.88;5030364;28;19913;-84
2021/06/09 02:00:24;;;;;;;;;;;;;;;21.03;57.18;100876.72;5029537;28;19916;-81
2021/06/09 02:03:09;;;;;;;;;;;;;;;21.29;57.92;100876.56;5026334;28;19913;-83
2021/06/09 02:05:54;;;;;;;;;;;;;;;21.55;57.23;100872.00;5025912;28;19913;-83
2021/06/09 02:08:40;;;;;;;;;;;;;;;21.71;57.14;100878.03;5027965;28;19913;-82
2021/06/09 02:11:26;;;;;;;;;;;;;;;21.60;55.24;100885.47;5015382;28;19921;-81
2021/06/09 02:14:12;;;;;;;;;;;;;;;21.49;55.74;100877.09;5014122;28;19913;-80
2021/06/09 02:16:57;;;;;;;;;;;;;;;21.65;57.03;100869.31;5040275;28;19913;-81
2021/06/09 02:19:42;;;;;;;;;;;;;;;21.74;56.54;100877.25;5029644;28;19921;-82
2021/06/09 02:22:28;;;;;;;;;;;;;;;21.68;55.45;100878.81;5023829;28;20284;-84
2021/06/09 02:25:12;;;;;;;;;;;;;;;21.71;55.71;100880.81;5016353;28;19913;-83
2021/06/09 02:27:57;;;;;;;;;;;;;;;21.77;56.86;100876.50;5020422;28;20436;-83
2021/06/09 02:30:42;;;;;;;;;;;;;;;21.90;56.68;100883.28;5039826;28;19920;-81
2021/06/09 02:33:27;;;;;;;;;;;;;;;21.99;56.26;100883.75;5017921;28;20381;-81
2021/06/09 02:36:13;;;;;;;;;;;;;;;22.04;56.03;100886.16;5029795;28;19920;-82
2021/06/09 02:38:58;;;;;;;;;;;;;;;22.07;56.15;100888.16;5019637;28;19917;-81
2021/06/09 02:41:42;;;;;;;;;;;;;;;22.06;54.92;100886.56;5016627;28;19913;-83
2021/06/09 02:44:27;;;;;;;;;;;;;;;21.84;53.36;100895.91;5040894;28;20293;-82
2021/06/09 02:47:13;;;;;;;;;;;;;;;21.27;54.81;100890.00;5024841;28;19913;-82
2021/06/09 02:49:59;;;;;;;;;;;;;;;21.15;56.48;100898.59;5015598;28;19912;-80
2021/06/09 02:52:51;;;;;;;;;;;;;;;21.54;57.35;100900.84;5015251;28;19913;-83
2021/06/09 02:55:54;;;;;;;;;;;;;;;21.40;56.38;100906.28;5027486;28;19913;-81
2021/06/09 02:58:45;;;;;;;;;;;;;;;21.24;56.72;100904.59;5028009;28;19913;-80
2021/06/09 03:01:36;;;;;;;;;;;;;;;21.32;56.58;100897.94;5019668;28;19917;-81
2021/06/09 03:04:23;;;;;;;;;;;;;;;21.33;56.60;100904.28;5039707;28;19920;-80
2021/06/09 03:07:10;;;;;;;;;;;;;;;21.00;57.67;100904.34;5028510;28;19913;-81
2021/06/09 03:10:04;;;;;;;;;;;;;;;21.08;58.33;100906.78;5033115;28;19912;-80
2021/06/09 03:13:02;;;;;;;;;;;;;;;21.06;59.10;100909.16;5021408;28;20381;-81
2021/06/09 03:15:52;;;;;;;;;;;;;;;21.00;58.26;100909.88;5019615;28;19921;-80
2021/06/09 03:18:41;;;;;;;;;;;;;;;20.95;58.76;100905.47;5021791;28;19913;-81
2021/06/09 03:21:55;;;;;;;;;;;;;;;20.84;57.72;100910.91;5033214;28;21244;-80
2021/06/09 03:24:42;;;;;;;;;;;;;;;21.21;58.32;100915.63;5026632;28;19913;-80
2021/06/09 03:27:33;;;;;;;;;;;;;;;21.44;58.24;100918.16;5025482;28;19913;-81
2021/06/09 03:30:18;;;;;;;;;;;;;;;21.64;57.89;100916.72;5027329;28;19913;-85
2021/06/09 03:33:06;;;;;;;;;;;;;;;21.61;57.76;100917.50;5042363;28;19913;-85
2021/06/09 03:35:54;;;;;;;;;;;;;;;21.43;57.86;100919.38;5038606;28;19913;-83
2021/06/09 03:38:43;;;;;;;;;;;;;;;21.69;57.84;100913.59;5050078;28;20293;-83
2021/06/09 03:41:34;;;;;;;;;;;;;;;21.79;57.46;100912.88;5037296;28;19917;-84
2021/06/09 03:44:48;;;;;;;;;;;;;;;21.89;57.02;100914.91;5023364;28;20328;-83
2021/06/09 03:47:33;;;;;;;;;;;;;;;21.95;56.94;100916.16;5044195;28;19916;-78
2021/06/09 03:50:18;;;;;;;;;;;;;;;21.99;56.52;100918.97;5035668;28;19913;-79
2021/06/09 03:53:03;;;;;;;;;;;;;;;21.99;56.58;100916.97;5031501;28;19912;-77
2021/06/09 03:55:50;;;;;;;;;;;;;;;21.96;56.56;100912.22;5030363;28;19917;-77
2021/06/09 03:58:35;;;;;;;;;;;;;;;21.96;56.52;100917.75;5034636;28;19913;-77
2021/06/09 04:01:20;;;;;;;;;;;;;;;21.93;56.39;100914.94;5033660;28;19917;-77
2021/06/09 04:04:05;;;;;;;;;;;;;;;21.90;56.57;100913.72;5031181;28;20385;-76
2021/06/09 04:06:51;;;;;;;;;;;;;;;21.90;56.32;100912.94;5048559;28;20380;-77
2021/06/09 04:09:38;;;;;;;;;;;;;;;21.88;56.69;100927.19;5031766;28;19913;-77
2021/06/09 04:12:23;;;;;;;;;;;;;;;21.89;56.50;100917.69;5044851;28;20404;-77
2021/06/09 04:15:11;;;;;;;;;;;;;;;21.87;56.24;100913.72;5024704;28;20316;-76
2021/06/09 04:17:58;;;;;;;;;;;;;;;21.83;56.26;100913.72;5054407;28;19913;-77
2021/06/09 04:20:44;;;;;;;;;;;;;;;21.82;56.44;100917.66;5014265;28;19925;-77
2021/06/09 04:23:28;;;;;;;;;;;;;;;21.83;56.35;100913.72;5030591;28;20296;-77
2021/06/09 04:26:15;;;;;;;;;;;;;;;21.85;55.73;100925.19;5043024;28;19925;-76
2021/06/09 04:29:01;;;;;;;;;;;;;;;21.84;55.82;100922.81;5032966;28;19912;-75
2021/06/09 04:31:47;;;;;;;;;;;;;;;21.84;56.11;100918.03;5048153;28;19924;-75
2021/06/09 04:35:00;;;;;;;;;;;;;;;21.83;55.51;100918.44;5045715;28;19916;-78
2021/06/09 04:37:46;;;;;;;;;;;;;;;21.49;56.18;100928.88;5030061;28;19940;-78
2021/06/09 04:40:31;;;;;;;;;;;;;;;21.55;56.85;100935.66;5029776;28;19917;-75
2021/06/09 04:43:15;;;;;;;;;;;;;;;21.61;56.47;100923.03;5033377;28;19913;-78
2021/06/09 04:46:00;;;;;;;;;;;;;;;21.68;56.40;100928.66;5043217;28;19913;-77
2021/06/09 04:48:55;;;;;;;;;;;;;;;21.73;56.40;100929.06;5031521;28;19913;-77
2021/06/09 04:51:40;;;;;;;;;;;;;;;21.72;56.19;100921.16;5042822;28;19913;-77
2021/06/09 04:54:25;;;;;;;;;;;;;;;21.43;56.74;100934.00;5046895;28;19917;-77
2021/06/09 04:57:10;;;;;;;;;;;;;;;21.48;56.26;100932.84;5048877;28;19913;-76
2021/06/09 04:59:55;;;;;;;;;;;;;;;21.44;56.92;100934.78;5048647;28;19921;-76
2021/06/09 05:02:39;;;;;;;;;;;;;;;21.58;56.86;100935.69;5041167;28;19912;-76
2021/06/09 05:05:24;;;;;;;;;;;;;;;21.67;56.93;100935.34;5032414;28;19913;-76
2021/06/09 05:08:09;;;;;;;;;;;;;;;21.72;57.09;100929.47;5046797;28;19916;-76
2021/06/09 05:10:53;;;;;;;;;;;;;;;21.74;57.00;100938.94;5021257;28;19913;-76
2021/06/09 05:13:40;;;;;;;;;;;;;;;21.74;57.40;100935.38;5022561;28;20384;-77
2021/06/09 05:16:26;;;;;;;;;;;;;;;21.73;57.11;100937.38;5041060;28;19913;-76
2021/06/09 05:19:13;;;;;;;;;;;;;;;21.73;57.17;100944.91;5030189;28;19912;-78
2021/06/09 05:22:04;;;;;;;;;;;;;;;21.72;57.32;100935.78;5033715;28;20397;-78
2021/06/09 05:24:49;;;;;;;;;;;;;;;21.70;57.46;100945.66;5035002;28;20405;-76
2021/06/09 05:27:36;;;;;;;;;;;;;;;21.70;57.87;100942.88;5020975;28;19912;-77
2021/06/09 05:30:21;;;;;;;;;;;;;;;21.73;57.95;100942.13;5018765;28;19913;-77
2021/06/09 05:33:07;;;;;;;;;;;;;;;21.73;57.84;100948.47;5030389;28;19913;-76
2021/06/09 05:35:52;;;;;;;;;;;;;;;21.73;58.04;100948.47;5029592;28;19912;-77
2021/06/09 05:38:38;;;;;;;;;;;;;;;21.75;57.68;100945.28;5046729;28;20384;-76
2021/06/09 05:41:26;;;;;;;;;;;;;;;21.74;57.77;100952.00;5017438;28;20304;-77
2021/06/09 05:44:15;;;;;;;;;;;;;;;21.76;57.81;100953.22;5032201;28;19913;-76
2021/06/09 05:47:00;;;;;;;;;;;;;;;21.81;57.84;100960.34;5033793;28;19913;-77
2021/06/09 05:49:45;;;;;;;;;;;;;;;21.81;57.76;100954.81;5031723;28;19913;-77
2021/06/09 05:52:29;;;;;;;;;;;;;;;21.88;57.45;100954.09;5050804;28;19912;-76
2021/06/09 05:55:15;;;;;;;;;;;;;;;21.97;56.78;100960.91;5026709;28;20631;-76
2021/06/09 05:58:03;;;;;;;;;;;;;;;22.07;56.76;100962.94;5041349;28;19913;-77
2021/06/09 06:00:56;;;;;;;;;;;;;;;22.20;56.53;100962.63;5041381;28;19925;-75
2021/06/09 06:03:42;;;;;;;;;;;;;;;22.29;55.88;100966.63;5026424;28;20381;-75
2021/06/09 06:06:27;;;;;;;;;;;;;;;22.41;55.95;100973.78;5028330;28;19921;-76
2021/06/09 06:09:11;;;;;;;;;;;;;;;22.50;55.72;100963.16;5034403;28;19912;-77
2021/06/09 06:11:56;;;;;;;;;;;;;;;22.52;55.86;100969.09;5039291;28;19913;-77
2021/06/09 06:14:40;;;;;;;;;;;;;;;22.58;56.22;100967.53;5034103;28;19913;-77
2021/06/09 06:17:25;;;;;;;;;;;;;;;22.60;56.09;100971.47;5047113;28;19921;-76
2021/06/09 06:20:14;;;;;;;;;;;;;;;22.59;56.35;100966.34;5034274;28;19917;-77
2021/06/09 06:22:59;;;;;;;;;;;;;;;22.59;56.21;100969.13;5025956;28;19913;-77
2021/06/09 06:25:44;;;;;;;;;;;;;;;22.51;56.69;100968.28;5014569;28;20292;-77
2021/06/09 06:28:30;;;;;;;;;;;;;;;22.55;56.59;100965.53;5031773;28;19913;-76
2021/06/09 06:31:18;;;;;;;;;;;;;;;22.38;56.80;100967.06;5046582;28;19913;-76
2021/06/09 06:34:03;;;;;;;;;;;;;;;22.34;56.98;100965.44;5025409;28;20716;-76
2021/06/09 06:36:48;;;;;;;;;;;;;;;22.31;57.31;100963.44;5041388;28;19913;-78
2021/06/09 06:39:33;;;;;;;;;;;;;;;22.39;56.98;100963.09;5028570;28;19913;-76
2021/06/09 06:42:18;;;;;;;;;;;;;;;22.51;56.95;100959.16;5041831;28;19916;-77
2021/06/09 06:45:04;;;;;;;;;;;;;;;22.69;56.57;100959.25;5046015;28;19913;-77
2021/06/09 06:47:50;;;;;;;;;;;;;;;22.80;55.69;100952.59;5033635;28;19932;-77
2021/06/09 06:50:34;;;;;;;;;;;;;;;22.92;55.43;100963.28;5031897;28;19913;-77
2021/06/09 06:53:19;;;;;;;;;;;;;;;23.36;54.07;100954.66;5043783;28;20388;-75
2021/06/09 06:56:05;;;;;;;;;;;;;;;23.66;53.25;100962.59;5046084;28;20293;-76
2021/06/09 06:58:53;;;;;;;;;;;;;;;23.54;52.46;100954.66;5031424;28;19913;-77
2021/06/09 07:01:37;;;;;;;;;;;;;;;23.54;51.13;100960.22;5045173;28;19917;-76
2021/06/09 07:04:23;;;;;;;;;;;;;;;23.41;49.79;100959.81;5031943;28;19913;-75
2021/06/09 07:07:07;;;;;;;;;;;;;;;23.44;49.45;100958.19;5031415;28;19921;-77
2021/06/09 07:09:52;;;;;;;;;;;;;;;23.42;50.11;100963.34;5022451;28;19917;-78
2021/06/09 07:12:41;;;;;;;;;;;;;;;23.56;49.68;100962.59;5034496;28;19912;-77
2021/06/09 07:15:27;;;;;;;;;;;;;;;23.95;47.89;100963.34;5032892;28;19913;-77
2021/06/09 07:18:12;;;;;;;;;;;;;;;24.07;47.44;100953.78;5037107;28;19917;-77
2021/06/09 07:20:57;;;;;;;;;;;;;;;24.25;46.23;100957.31;5041793;28;19921;-77
2021/06/09 07:23:42;;;;;;;;;;;;;;;24.67;45.25;100959.13;5037074;28;19916;-77
2021/06/09 07:26:28;;;;;;;;;;;;;;;25.04;44.63;100958.56;5041327;28;19921;-76
2021/06/09 07:29:16;;;;;;;;;;;;;;;25.17;44.44;100973.56;5046700;28;19916;-76
2021/06/09 07:32:01;;;;;;;;;;;;;;;25.41;44.25;100977.34;5045033;28;19913;-76
2021/06/09 07:34:45;;;;;;;;;;;;;;;25.52;43.50;100978.88;5045177;28;19913;-76
2021/06/09 07:37:33;;;;;;;;;;;;;;;25.86;43.04;100981.75;5021929;28;19921;-76
2021/06/09 07:40:26;;;;;;;;;;;;;;;25.97;42.05;100979.66;5017498;28;19942;-78
2021/06/09 07:43:13;;;;;;;;;;;;;;;26.32;41.78;100977.72;5046023;28;20312;-77
2021/06/09 07:45:59;;;;;;;;;;;;;;;26.38;38.98;100985.22;5033718;28;19913;-77
2021/06/09 07:48:48;;;;;;;;;;;;;;;27.23;39.07;100977.69;5032879;28;19913;-77
2021/06/09 07:51:33;;;;;;;;;;;;;;;27.49;37.36;100981.66;5034663;28;19917;-77
2021/06/09 07:54:19;;;;;;;;;;;;;;;26.94;37.62;100979.34;5051165;28;19913;-77
2021/06/09 07:57:05;;;;;;;;;;;;;;;26.46;39.25;100976.78;5032836;28;20201;-76
2021/06/09 07:59:50;;;;;;;;;;;;;;;26.49;38.61;100984.28;5037733;28;19917;-77
2021/06/09 08:02:36;;;;;;;;;;;;;;;26.12;40.92;100980.31;5022247;28;19912;-77
2021/06/09 08:05:21;;;;;;;;;;;;;;;25.74;41.59;100984.28;5030693;28;20293;-75
2021/06/09 08:08:06;;;;;;;;;;;;;;;25.76;42.16;100984.66;5045624;28;19912;-75
2021/06/09 08:10:50;;;;;;;;;;;;;;;26.32;41.32;100980.50;5050161;28;19912;-76
2021/06/09 08:13:36;;;;;;;;;;;;;;;25.70;42.92;100981.50;5024393;28;19913;-76
2021/06/09 08:16:21;;;;;;;;;;;;;;;25.26;44.16;100982.25;5039707;28;20324;-77
2021/06/09 08:19:07;;;;;;;;;;;;;;;24.98;45.43;100979.66;5050652;28;19920;-75
2021/06/09 08:21:51;;;;;;;;;;;;;;;24.82;45.75;100977.34;5015215;28;19917;-80
2021/06/09 08:24:36;;;;;;;;;;;;;;;24.57;46.41;100971.09;5032994;28;19913;-75
2021/06/09 08:27:20;;;;;;;;;;;;;;;24.47;47.30;100971.94;5030546;28;19913;-76
2021/06/09 08:30:06;;;;;;;;;;;;;;;24.47;46.99;100969.97;5031304;28;20296;-77
2021/06/09 08:32:52;;;;;;;;;;;;;;;24.31;47.51;100966.84;5029461;28;20297;-76
2021/06/09 08:35:36;;;;;;;;;;;;;;;24.20;48.04;100969.66;5041023;28;19912;-76
2021/06/09 08:38:21;;;;;;;;;;;;;;;24.15;48.39;100970.03;5027556;28;19916;-75
2021/06/09 08:41:06;;;;;;;;;;;;;;;24.31;48.00;100974.38;5026301;28;19916;-77
2021/06/09 08:43:51;;;;;;;;;;;;;;;24.34;48.13;100974.38;5032592;28;19928;-74
2021/06/09 08:46:36;;;;;;;;;;;;;;;24.32;48.10;100974.00;5030578;28;19912;-74
2021/06/09 08:49:22;;;;;;;;;;;;;;;24.29;48.81;100969.22;5020249;28;19913;-80
2021/06/09 08:52:10;;;;;;;;;;;;;;;24.70;47.66;100975.81;5015049;28;19921;-75
2021/06/09 08:54:54;;;;;;;;;;;;;;;24.68;47.20;100967.09;5021844;28;19913;-77
2021/06/09 08:57:39;;;;;;;;;;;;;;;24.62;47.48;100971.47;5022449;28;19917;-78
2021/06/09 09:00:25;;;;;;;;;;;;;;;24.45;47.80;100974.31;5050838;28;20381;-77
2021/06/09 09:03:10;;;;;;;;;;;;;;;24.66;47.49;100971.44;5051009;28;19912;-78
2021/06/09 09:05:54;;;;;;;;;;;;;;;24.46;47.74;100971.16;5033526;28;19913;-78
2021/06/09 09:08:39;;;;;;;;;;;;;;;24.57;46.71;100976.66;5043524;28;19912;-79
2021/06/09 09:11:24;;;;;;;;;;;;;;;24.77;46.01;100976.97;5018380;28;20381;-77
2021/06/09 09:14:09;;;;;;;;;;;;;;;24.56;46.46;100975.88;5015693;28;19913;-78
2021/06/09 09:17:03;;;;;;;;;;;;;;;24.54;47.28;100975.47;5019003;28;19912;-77
2021/06/09 09:19:48;;;;;;;;;;;;;;;24.49;47.09;100970.34;5044143;28;19921;-74
2021/06/09 09:22:35;;;;;;;;;;;;;;;24.60;46.88;100976.66;5028793;28;19913;-77
2021/06/09 09:25:21;;;;;;;;;;;;;;;24.66;45.35;100979.81;5029430;28;19913;-79
2021/06/09 09:28:06;;;;;;;;;;;;;;;24.57;46.94;100982.22;5047145;28;20388;-78
2021/06/09 09:30:50;;;;;;;;;;;;;;;24.35;47.28;100981.50;5019217;28;20284;-78
2021/06/09 09:33:35;;;;;;;;;;;;;;;24.54;45.65;100981.03;5028763;28;19917;-79
2021/06/09 09:36:23;;;;;;;;;;;;;;;24.50;46.79;100985.81;5031818;28;19912;-75
2021/06/09 09:39:19;;;;;;;;;;;;;;;24.44;47.24;100984.66;5043169;28;19917;-78
2021/06/09 09:42:30;;;;;;;;;;;;;;;24.35;46.92;100987.06;5037581;28;19912;-78
2021/06/09 09:45:18;;;;;;;;;;;;;;;24.38;46.88;100982.72;5012268;28;19913;-76
2021/06/09 09:48:03;;;;;;;;;;;;;;;24.01;48.47;100986.75;5024097;28;19916;-78
2021/06/09 09:50:50;;;;;;;;;;;;;;;23.84;49.18;100987.56;5041101;28;19913;-78
2021/06/09 09:53:35;;;;;;;;;;;;;;;24.10;48.52;100986.31;5027060;28;20297;-77
2021/06/09 09:56:22;;;;;;;;;;;;;;;24.01;49.00;100991.50;5031562;28;19912;-77
2021/06/09 09:59:11;;;;;;;;;;;;;;;24.10;48.67;100994.66;5024732;28;20649;-77
2021/06/09 10:01:57;;;;;;;;;;;;;;;23.93;49.50;100989.91;5046228;28;19912;-76
2021/06/09 10:04:47;;;;;;;;;;;;;;;24.17;48.55;101000.25;5033345;28;19912;-76
2021/06/09 10:07:31;;;;;;;;;;;;;;;24.44;47.39;100994.97;5034116;28;19913;-76
2021/06/09 10:10:23;;;;;;;;;;;;;;;24.17;48.58;100992.69;5033868;28;19913;-75
2021/06/09 10:13:10;;;;;;;;;;;;;;;24.17;48.45;100992.69;5034678;28;19913;-75
2021/06/09 10:15:54;;;;;;;;;;;;;;;24.20;48.47;100988.31;5025641;28;19913;-74
2021/06/09 10:18:38;;;;;;;;;;;;;;;24.17;48.78;100986.34;5025633;28;19924;-74
2021/06/09 10:21:24;;;;;;;;;;;;;;;24.01;49.51;100981.19;5016702;28;19921;-77
2021/06/09 10:24:10;;;;;;;;;;;;;;;23.99;49.88;100983.56;5027736;28;20289;-76
2021/06/09 10:27:05;;;;;;;;;;;;;;;23.95;50.12;100984.75;5026214;28;20301;-76
2021/06/09 10:29:50;;;;;;;;;;;;;;;23.90;50.52;100983.19;5023880;28;19912;-76
2021/06/09 10:32:34;;;;;;;;;;;;;;;23.86;50.26;100985.19;5031850;28;20376;-77
2021/06/09 10:35:20;;;;;;;;;;;;;;;23.72;51.10;100985.97;5014281;28;19913;-75
2021/06/09 10:38:05;;;;;;;;;;;;;;;23.61;51.52;100985.22;5043333;28;19916;-76
2021/06/09 10:40:49;;;;;;;;;;;;;;;23.60;51.67;100989.16;5042203;28;20385;-77
2021/06/09 10:43:35;;;;;;;;;;;;;;;23.50;52.00;100987.19;5036894;28;19917;-75
2021/06/09 10:46:26;;;;;;;;;;;;;;;23.44;52.25;100983.97;5034431;28;19912;-75
2021/06/09 10:49:13;;;;;;;;;;;;;;;23.51;52.28;100982.44;5035237;28;19921;-75
2021/06/09 10:51:58;;;;;;;;;;;;;;;23.52;52.16;100984.03;5019537;28;19916;-76
2021/06/09 10:54:44;;;;;;;;;;;;;;;23.50;52.26;100980.84;5021205;28;20385;-76
2021/06/09 10:57:29;;;;;;;;;;;;;;;23.50;52.13;100980.84;5015837;28;19913;-76
2021/06/09 11:00:15;;;;;;;;;;;;;;;23.45;52.64;100982.03;5038987;28;20304;-76
2021/06/09 11:03:00;;;;;;;;;;;;;;;23.52;52.33;100984.78;5026800;28;19916;-75
2021/06/09 11:05:44;;;;;;;;;;;;;;;23.50;52.37;100984.41;5034758;28;19913;-76
2021/06/09 11:08:29;;;;;;;;;;;;;;;23.47;52.52;100976.84;5033413;28;19913;-77
2021/06/09 11:11:17;;;;;;;;;;;;;;;23.45;52.87;100979.25;5034855;28;19917;-74
2021/06/09 11:14:17;;;;;;;;;;;;;;;23.50;55.30;100980.84;5029148;28;19913;-75
2021/06/09 11:17:01;;;;;;;;;;;;;;;23.57;54.45;100976.06;5045695;28;19917;-75
2021/06/09 11:19:46;;;;;;;;;;;;;;;23.59;54.45;100975.69;5030438;28;20308;-76
2021/06/09 11:22:38;;;;;;;;;;;;;;;23.57;54.49;100981.63;5031476;28;19913;-75
2021/06/09 11:25:25;;;;;;;;;;;;;;;23.55;54.05;100977.66;5037571;28;19913;-76
2021/06/09 11:28:14;;;;;;;;;;;;;;;23.59;54.76;100972.91;5042586;28;19913;-75
2021/06/09 11:31:05;;;;;;;;;;;;;;;23.59;53.28;100972.91;5023484;28;19913;-77
2021/06/09 11:33:53;;;;;;;;;;;;;;;23.58;53.19;100972.09;5040325;28;19921;-77
2021/06/09 11:36:43;;;;;;;;;;;;;;;23.53;53.01;100972.50;5019915;28;19916;-76
2021/06/09 11:39:28;;;;;;;;;;;;;;;23.42;53.54;100963.34;5027768;28;19925;-77
2021/06/09 11:42:14;;;;;;;;;;;;;;;23.43;52.79;100970.50;5041262;28;19913;-76
2021/06/09 11:45:18;;;;;;;;;;;;;;;23.43;52.33;100962.16;5054368;28;20396;-76
2021/06/09 11:48:14;;;;;;;;;;;;;;;23.44;52.25;100974.84;5037550;28;19998;-75
2021/06/09 11:51:15;;;;;;;;;;;;;;;23.45;52.21;100968.16;5037584;28;19912;-76
2021/06/09 11:54:01;;;;;;;;;;;;;;;23.47;52.56;100962.22;5033501;28;19913;-75
2021/06/09 11:56:47;;;;;;;;;;;;;;;23.42;52.89;100963.34;5044761;28;19913;-76
2021/06/09 11:59:34;;;;;;;;;;;;;;;23.32;53.50;100953.03;5021214;28;20381;-75
2021/06/09 12:02:20;;;;;;;;;;;;;;;23.30;53.38;100949.88;5043381;28;19912;-75
2021/06/09 12:05:06;;;;;;;;;;;;;;;23.27;53.42;100947.88;5028962;28;19917;-76
2021/06/09 12:07:52;;;;;;;;;;;;;;;23.31;53.11;100952.25;5031432;28;19912;-76
2021/06/09 12:10:36;;;;;;;;;;;;;;;23.36;52.88;100943.53;5028697;28;19921;-76
2021/06/09 12:13:27;;;;;;;;;;;;;;;23.32;52.82;100941.94;5029044;28;19913;-75
2021/06/09 12:16:15;;;;;;;;;;;;;;;23.30;52.68;100936.00;5031462;28;19912;-75
2021/06/09 12:19:01;;;;;;;;;;;;;;;23.35;52.24;100938.38;5029843;28;19917;-75
2021/06/09 12:21:45;;;;;;;;;;;;;;;23.35;52.02;100936.41;5028633;28;20301;-75
2021/06/09 12:24:29;;;;;;;;;;;;;;;23.39;52.17;100931.63;5047417;28;19913;-75
2021/06/09 12:27:14;;;;;;;;;;;;;;;23.39;52.24;100925.28;5028889;28;20376;-76
2021/06/09 12:29:59;;;;;;;;;;;;;;;23.43;52.19;100920.53;5025963;28;19920;-76
2021/06/09 12:32:44;;;;;;;;;;;;;;;23.39;52.22;100917.75;5024835;28;19916;-75
2021/06/09 12:35:30;;;;;;;;;;;;;;;23.41;52.02;100925.69;5038819;28;20203;-77
2021/06/09 12:38:14;;;;;;;;;;;;;;;23.41;52.04;100922.91;5039901;28;19916;-78
2021/06/09 12:40:59;;;;;;;;;;;;;;;23.37;51.81;100911.00;5035596;28;19912;-76
2021/06/09 12:43:45;;;;;;;;;;;;;;;23.42;51.73;100905.84;5037929;28;19913;-76
2021/06/09 12:46:29;;;;;;;;;;;;;;;23.43;52.05;100909.41;5028620;28;19920;-75
2021/06/09 12:49:40;;;;;;;;;;;;;;;23.35;51.28;100907.84;5013231;28;19921;-76
2021/06/09 12:52:30;;;;;;;;;;;;;;;23.41;50.96;100909.03;5045639;28;19913;-76
2021/06/09 12:55:17;;;;;;;;;;;;;;;23.41;51.00;100912.63;5029767;28;19913;-76
2021/06/09 12:58:04;;;;;;;;;;;;;;;23.40;51.28;100910.22;5044226;28;20857;-75
2021/06/09 13:00:54;;;;;;;;;;;;;;;23.41;51.03;100912.63;5039366;28;20397;-76
2021/06/09 13:03:43;;;;;;;;;;;;;;;23.40;50.76;100910.22;5044177;28;20381;-75
2021/06/09 13:06:30;;;;;;;;;;;;;;;23.39;51.02;100914.19;5021014;28;19913;-79
2021/06/09 13:09:19;;;;;;;;;;;;;;;23.39;50.74;100914.19;5042214;28;19912;-77
2021/06/09 13:12:04;;;;;;;;;;;;;;;23.37;51.15;100908.22;5038260;28;19913;-78
2021/06/09 13:14:48;;;;;;;;;;;;;;;23.35;51.67;100907.84;5053225;28;19917;-77
2021/06/09 13:17:33;;;;;;;;;;;;;;;23.30;51.78;100899.91;5042547;28;20412;-75
2021/06/09 13:20:19;;;;;;;;;;;;;;;23.25;51.92;100898.34;5051308;28;19917;-76
2021/06/09 13:23:08;;;;;;;;;;;;;;;23.18;52.40;100892.78;5039881;28;19916;-76
2021/06/09 13:25:52;;;;;;;;;;;;;;;23.19;52.32;100896.34;5032487;28;19913;-77
2021/06/09 13:28:37;;;;;;;;;;;;;;;23.23;52.15;100894.38;5036458;28;19913;-76
2021/06/09 13:31:29;;;;;;;;;;;;;;;23.32;51.84;100891.97;5032652;28;19913;-75
2021/06/09 13:34:16;;;;;;;;;;;;;;;23.45;51.44;100890.44;5033645;28;19913;-77
2021/06/09 13:37:01;;;;;;;;;;;;;;;23.43;51.60;100881.66;5036852;28;19913;-77
2021/06/09 13:39:49;;;;;;;;;;;;;;;23.40;51.32;100876.91;5021862;28;19916;-78
2021/06/09 13:42:35;;;;;;;;;;;;;;;23.39;51.42;100878.09;5033376;28;19916;-77
2021/06/09 13:45:21;;;;;;;;;;;;;;;23.43;51.56;100878.88;5021842;28;19913;-76
2021/06/09 13:48:07;;;;;;;;;;;;;;;23.44;51.63;100883.25;5020055;28;19913;-76
2021/06/09 13:51:03;;;;;;;;;;;;;;;23.51;51.52;100872.19;5004005;28;19913;-76
2021/06/09 13:53:50;;;;;;;;;;;;;;;23.48;51.52;100872.97;5032432;28;19913;-78
2021/06/09 13:56:36;;;;;;;;;;;;;;;23.60;51.03;100877.31;5032331;28;20381;-76
2021/06/09 13:59:26;;;;;;;;;;;;;;;23.54;51.39;100876.91;5031548;28;20389;-76
2021/06/09 14:02:19;;;;;;;;;;;;;;;23.57;51.07;100873.34;5030178;28;19913;-76
2021/06/09 14:05:13;;;;;;;;;;;;;;;23.51;51.30;100871.38;5030441;28;20563;-75
2021/06/09 14:08:04;;;;;;;;;;;;;;;23.59;50.95;100870.97;5038833;28;20296;-77
2021/06/09 14:10:50;;;;;;;;;;;;;;;23.57;51.09;100870.56;5038274;28;20301;-75
2021/06/09 14:13:34;;;;;;;;;;;;;;;23.59;50.91;100868.19;5012616;28;20413;-75
2021/06/09 14:16:20;;;;;;;;;;;;;;;23.59;50.82;100862.63;5048663;28;20297;-75